sensor_id;sensor_type;location;lat;lon;timestamp;P1;durP1;ratioP1;P2;durP2;ratioP2
84763;SDS011;74992;51.072;6.088;2024-01-15T00:02:12;40.42;;;17.85;;
84763;SDS011;74992;51.072;6.088;2024-01-15T00:05:13;31.10;;;13.88;;
84763;SDS011;74992;51.072;6.088;2024-01-15T00:08:16;36.33;;;15.70;;
84763;SDS011;74992;51.072;6.088;2024-01-15T00:11:17;32.60;;;14.52;;
84763;SDS011;74992;51.072;6.088;2024-01-15T00:14:19;40.97;;;18.77;;
84763;SDS011;74992;51.072;6.088;2024-01-15T00:17:21;39.03;;;16.83;;
84763;SDS011;74992;51.072;6.088;2024-01-15T00:20:22;35.65;;;16.67;;
84763;SDS011;74992;51.072;6.088;2024-01-15T00:23:23;33.92;;;13.75;;
84763;SDS011;74992;51.072;6.088;2024-01-15T00:26:25;24.08;;;11.07;;
84763;SDS011;74992;51.072;6.088;2024-01-15T00:29:26;38.10;;;19.35;;
84763;SDS011;74992;51.072;6.088;2024-01-15T00:32:28;32.90;;;15.23;;
84763;SDS011;74992;51.072;6.088;2024-01-15T00:35:29;35.55;;;16.30;;
84763;SDS011;74992;51.072;6.088;2024-01-15T00:38:31;24.40;;;12.15;;
84763;SDS011;74992;51.072;6.088;2024-01-15T00:41:32;32.80;;;15.60;;
84763;SDS011;74992;51.072;6.088;2024-01-15T00:44:33;29.92;;;13.55;;
84763;SDS011;74992;51.072;6.088;2024-01-15T00:47:35;35.20;;;18.08;;
84763;SDS011;74992;51.072;6.088;2024-01-15T00:50:36;41.72;;;18.23;;
84763;SDS011;74992;51.072;6.088;2024-01-15T00:53:38;40.40;;;17.30;;
84763;SDS011;74992;51.072;6.088;2024-01-15T00:56:39;38.05;;;16.83;;
84763;SDS011;74992;51.072;6.088;2024-01-15T00:59:41;42.42;;;18.88;;
84763;SDS011;74992;51.072;6.088;2024-01-15T01:02:42;36.13;;;17.95;;
84763;SDS011;74992;51.072;6.088;2024-01-15T01:05:44;25.42;;;12.13;;
84763;SDS011;74992;51.072;6.088;2024-01-15T01:08:45;41.55;;;15.95;;
84763;SDS011;74992;51.072;6.088;2024-01-15T01:11:47;37.47;;;17.25;;
84763;SDS011;74992;51.072;6.088;2024-01-15T01:14:48;46.50;;;17.88;;
84763;SDS011;74992;51.072;6.088;2024-01-15T01:17:50;39.42;;;17.23;;
84763;SDS011;74992;51.072;6.088;2024-01-15T01:20:51;34.80;;;15.32;;
84763;SDS011;74992;51.072;6.088;2024-01-15T01:23:53;36.80;;;16.95;;
84763;SDS011;74992;51.072;6.088;2024-01-15T01:26:54;38.15;;;17.75;;
84763;SDS011;74992;51.072;6.088;2024-01-15T01:29:55;42.08;;;17.27;;
84763;SDS011;74992;51.072;6.088;2024-01-15T01:32:57;29.00;;;13.43;;
84763;SDS011;74992;51.072;6.088;2024-01-15T01:36:00;27.02;;;13.55;;
84763;SDS011;74992;51.072;6.088;2024-01-15T01:39:01;25.77;;;12.90;;
84763;SDS011;74992;51.072;6.088;2024-01-15T01:42:02;34.42;;;17.42;;
84763;SDS011;74992;51.072;6.088;2024-01-15T01:45:06;36.78;;;16.45;;
84763;SDS011;74992;51.072;6.088;2024-01-15T01:48:08;30.83;;;14.05;;
84763;SDS011;74992;51.072;6.088;2024-01-15T01:51:10;27.80;;;15.05;;
84763;SDS011;74992;51.072;6.088;2024-01-15T01:54:13;32.35;;;16.40;;
84763;SDS011;74992;51.072;6.088;2024-01-15T01:57:14;20.65;;;11.27;;
84763;SDS011;74992;51.072;6.088;2024-01-15T02:00:16;34.28;;;13.98;;
84763;SDS011;74992;51.072;6.088;2024-01-15T02:03:18;36.38;;;15.77;;
84763;SDS011;74992;51.072;6.088;2024-01-15T02:06:20;29.67;;;15.68;;
84763;SDS011;74992;51.072;6.088;2024-01-15T02:09:22;31.27;;;17.35;;
84763;SDS011;74992;51.072;6.088;2024-01-15T02:12:23;32.70;;;15.68;;
84763;SDS011;74992;51.072;6.088;2024-01-15T02:15:25;35.15;;;18.08;;
84763;SDS011;74992;51.072;6.088;2024-01-15T02:18:26;30.77;;;14.80;;
84763;SDS011;74992;51.072;6.088;2024-01-15T02:21:28;26.73;;;13.40;;
84763;SDS011;74992;51.072;6.088;2024-01-15T02:24:29;33.20;;;14.38;;
84763;SDS011;74992;51.072;6.088;2024-01-15T02:27:31;36.05;;;15.57;;
84763;SDS011;74992;51.072;6.088;2024-01-15T02:30:34;33.53;;;16.35;;
84763;SDS011;74992;51.072;6.088;2024-01-15T02:33:38;32.95;;;16.58;;
84763;SDS011;74992;51.072;6.088;2024-01-15T02:36:39;31.60;;;15.68;;
84763;SDS011;74992;51.072;6.088;2024-01-15T02:39:41;28.75;;;13.63;;
84763;SDS011;74992;51.072;6.088;2024-01-15T02:42:43;32.75;;;16.55;;
84763;SDS011;74992;51.072;6.088;2024-01-15T02:45:45;35.08;;;17.23;;
84763;SDS011;74992;51.072;6.088;2024-01-15T02:48:47;31.52;;;14.75;;
84763;SDS011;74992;51.072;6.088;2024-01-15T02:51:49;38.65;;;17.85;;
84763;SDS011;74992;51.072;6.088;2024-01-15T02:54:51;25.90;;;12.73;;
84763;SDS011;74992;51.072;6.088;2024-01-15T02:57:52;23.48;;;13.30;;
84763;SDS011;74992;51.072;6.088;2024-01-15T03:00:53;29.27;;;13.63;;
84763;SDS011;74992;51.072;6.088;2024-01-15T03:03:55;20.58;;;10.98;;
84763;SDS011;74992;51.072;6.088;2024-01-15T03:06:57;25.27;;;13.98;;
84763;SDS011;74992;51.072;6.088;2024-01-15T03:10:00;25.58;;;13.40;;
84763;SDS011;74992;51.072;6.088;2024-01-15T03:13:01;28.23;;;13.95;;
84763;SDS011;74992;51.072;6.088;2024-01-15T03:16:04;23.80;;;11.60;;
84763;SDS011;74992;51.072;6.088;2024-01-15T03:22:07;24.13;;;12.10;;
84763;SDS011;74992;51.072;6.088;2024-01-15T03:25:09;23.15;;;11.60;;
84763;SDS011;74992;51.072;6.088;2024-01-15T03:28:10;28.85;;;15.20;;
84763;SDS011;74992;51.072;6.088;2024-01-15T03:31:12;31.83;;;12.73;;
84763;SDS011;74992;51.072;6.088;2024-01-15T03:34:13;24.58;;;12.95;;
84763;SDS011;74992;51.072;6.088;2024-01-15T03:37:15;26.05;;;13.32;;
84763;SDS011;74992;51.072;6.088;2024-01-15T03:40:17;24.55;;;13.60;;
84763;SDS011;74992;51.072;6.088;2024-01-15T03:43:18;32.55;;;15.95;;
84763;SDS011;74992;51.072;6.088;2024-01-15T03:46:20;28.67;;;14.27;;
84763;SDS011;74992;51.072;6.088;2024-01-15T03:49:21;16.17;;;9.65;;
84763;SDS011;74992;51.072;6.088;2024-01-15T03:52:23;23.02;;;11.85;;
84763;SDS011;74992;51.072;6.088;2024-01-15T03:55:24;27.45;;;13.63;;
84763;SDS011;74992;51.072;6.088;2024-01-15T03:58:26;22.52;;;12.38;;
84763;SDS011;74992;51.072;6.088;2024-01-15T04:01:27;23.77;;;12.75;;
84763;SDS011;74992;51.072;6.088;2024-01-15T04:04:29;23.88;;;11.68;;
84763;SDS011;74992;51.072;6.088;2024-01-15T04:07:31;30.00;;;13.82;;
84763;SDS011;74992;51.072;6.088;2024-01-15T04:10:32;28.00;;;14.75;;
84763;SDS011;74992;51.072;6.088;2024-01-15T04:13:33;28.25;;;14.23;;
84763;SDS011;74992;51.072;6.088;2024-01-15T04:16:35;26.42;;;12.75;;
84763;SDS011;74992;51.072;6.088;2024-01-15T04:19:38;29.15;;;13.73;;
84763;SDS011;74992;51.072;6.088;2024-01-15T04:22:43;27.52;;;13.10;;
84763;SDS011;74992;51.072;6.088;2024-01-15T04:25:45;17.45;;;9.25;;
84763;SDS011;74992;51.072;6.088;2024-01-15T04:28:46;19.63;;;10.95;;
84763;SDS011;74992;51.072;6.088;2024-01-15T04:31:48;28.77;;;13.88;;
84763;SDS011;74992;51.072;6.088;2024-01-15T04:34:49;27.73;;;13.35;;
84763;SDS011;74992;51.072;6.088;2024-01-15T04:37:51;28.25;;;11.93;;
84763;SDS011;74992;51.072;6.088;2024-01-15T04:40:53;18.67;;;10.13;;
84763;SDS011;74992;51.072;6.088;2024-01-15T04:43:54;14.93;;;8.27;;
84763;SDS011;74992;51.072;6.088;2024-01-15T04:46:56;18.02;;;8.77;;
84763;SDS011;74992;51.072;6.088;2024-01-15T04:49:57;16.48;;;7.45;;
84763;SDS011;74992;51.072;6.088;2024-01-15T04:52:59;19.83;;;10.00;;
84763;SDS011;74992;51.072;6.088;2024-01-15T04:56:00;17.95;;;10.27;;
84763;SDS011;74992;51.072;6.088;2024-01-15T04:59:01;18.25;;;11.50;;
84763;SDS011;74992;51.072;6.088;2024-01-15T05:02:03;20.50;;;9.70;;
84763;SDS011;74992;51.072;6.088;2024-01-15T05:05:04;20.80;;;10.80;;
84763;SDS011;74992;51.072;6.088;2024-01-15T05:08:06;19.48;;;12.98;;
84763;SDS011;74992;51.072;6.088;2024-01-15T05:11:07;21.75;;;11.52;;
84763;SDS011;74992;51.072;6.088;2024-01-15T05:14:09;23.25;;;11.93;;
84763;SDS011;74992;51.072;6.088;2024-01-15T05:17:10;20.45;;;10.75;;
84763;SDS011;74992;51.072;6.088;2024-01-15T05:20:15;23.95;;;11.77;;
84763;SDS011;74992;51.072;6.088;2024-01-15T05:23:16;19.67;;;11.30;;
84763;SDS011;74992;51.072;6.088;2024-01-15T05:26:18;22.42;;;13.18;;
84763;SDS011;74992;51.072;6.088;2024-01-15T05:29:19;20.92;;;11.75;;
84763;SDS011;74992;51.072;6.088;2024-01-15T05:32:21;17.20;;;10.90;;
84763;SDS011;74992;51.072;6.088;2024-01-15T05:35:22;22.02;;;11.25;;
84763;SDS011;74992;51.072;6.088;2024-01-15T05:38:23;24.30;;;10.88;;
84763;SDS011;74992;51.072;6.088;2024-01-15T05:41:25;26.88;;;11.45;;
84763;SDS011;74992;51.072;6.088;2024-01-15T05:44:26;24.95;;;11.93;;
84763;SDS011;74992;51.072;6.088;2024-01-15T05:47:27;22.67;;;13.05;;
84763;SDS011;74992;51.072;6.088;2024-01-15T05:50:29;25.52;;;10.68;;
84763;SDS011;74992;51.072;6.088;2024-01-15T05:53:30;20.13;;;12.70;;
84763;SDS011;74992;51.072;6.088;2024-01-15T05:56:33;22.38;;;11.02;;
84763;SDS011;74992;51.072;6.088;2024-01-15T05:59:35;20.52;;;10.85;;
84763;SDS011;74992;51.072;6.088;2024-01-15T06:02:39;24.08;;;10.82;;
84763;SDS011;74992;51.072;6.088;2024-01-15T06:05:41;19.45;;;10.57;;
84763;SDS011;74992;51.072;6.088;2024-01-15T06:08:42;22.25;;;11.20;;
84763;SDS011;74992;51.072;6.088;2024-01-15T06:11:44;17.50;;;8.55;;
84763;SDS011;74992;51.072;6.088;2024-01-15T06:14:45;14.95;;;9.02;;
84763;SDS011;74992;51.072;6.088;2024-01-15T06:17:47;23.05;;;10.23;;
84763;SDS011;74992;51.072;6.088;2024-01-15T06:20:48;18.52;;;10.43;;
84763;SDS011;74992;51.072;6.088;2024-01-15T06:23:50;25.50;;;11.32;;
84763;SDS011;74992;51.072;6.088;2024-01-15T06:26:51;26.38;;;12.38;;
84763;SDS011;74992;51.072;6.088;2024-01-15T06:29:53;21.20;;;12.70;;
84763;SDS011;74992;51.072;6.088;2024-01-15T06:32:56;22.58;;;12.45;;
84763;SDS011;74992;51.072;6.088;2024-01-15T06:35:57;26.17;;;12.98;;
84763;SDS011;74992;51.072;6.088;2024-01-15T06:38:59;20.90;;;12.45;;
84763;SDS011;74992;51.072;6.088;2024-01-15T06:42:00;23.90;;;14.27;;
84763;SDS011;74992;51.072;6.088;2024-01-15T06:45:02;23.27;;;11.30;;
84763;SDS011;74992;51.072;6.088;2024-01-15T06:48:03;23.08;;;12.13;;
84763;SDS011;74992;51.072;6.088;2024-01-15T06:51:05;23.80;;;12.50;;
84763;SDS011;74992;51.072;6.088;2024-01-15T06:54:07;24.95;;;13.52;;
84763;SDS011;74992;51.072;6.088;2024-01-15T06:57:08;25.80;;;14.02;;
84763;SDS011;74992;51.072;6.088;2024-01-15T07:00:11;30.90;;;14.43;;
84763;SDS011;74992;51.072;6.088;2024-01-15T07:03:13;21.75;;;12.82;;
84763;SDS011;74992;51.072;6.088;2024-01-15T07:06:14;30.20;;;16.60;;
84763;SDS011;74992;51.072;6.088;2024-01-15T07:09:16;28.92;;;15.48;;
84763;SDS011;74992;51.072;6.088;2024-01-15T07:12:18;32.33;;;16.42;;
84763;SDS011;74992;51.072;6.088;2024-01-15T07:15:19;32.50;;;16.45;;
84763;SDS011;74992;51.072;6.088;2024-01-15T07:18:20;28.58;;;15.75;;
84763;SDS011;74992;51.072;6.088;2024-01-15T07:21:22;30.67;;;16.33;;
84763;SDS011;74992;51.072;6.088;2024-01-15T07:24:23;30.70;;;14.15;;
84763;SDS011;74992;51.072;6.088;2024-01-15T07:27:25;27.38;;;13.45;;
84763;SDS011;74992;51.072;6.088;2024-01-15T07:30:26;18.95;;;11.60;;
84763;SDS011;74992;51.072;6.088;2024-01-15T07:33:28;18.13;;;13.60;;
84763;SDS011;74992;51.072;6.088;2024-01-15T07:36:29;25.10;;;15.48;;
84763;SDS011;74992;51.072;6.088;2024-01-15T07:39:30;23.67;;;12.75;;
84763;SDS011;74992;51.072;6.088;2024-01-15T07:42:32;25.02;;;13.57;;
84763;SDS011;74992;51.072;6.088;2024-01-15T07:45:34;30.33;;;16.25;;
84763;SDS011;74992;51.072;6.088;2024-01-15T07:48:35;30.05;;;15.48;;
84763;SDS011;74992;51.072;6.088;2024-01-15T07:51:37;32.20;;;15.93;;
84763;SDS011;74992;51.072;6.088;2024-01-15T07:54:40;26.88;;;13.68;;
84763;SDS011;74992;51.072;6.088;2024-01-15T07:57:41;24.48;;;11.02;;
84763;SDS011;74992;51.072;6.088;2024-01-15T08:00:43;30.77;;;15.30;;
84763;SDS011;74992;51.072;6.088;2024-01-15T08:03:44;24.70;;;13.95;;
84763;SDS011;74992;51.072;6.088;2024-01-15T08:06:46;26.27;;;14.55;;
84763;SDS011;74992;51.072;6.088;2024-01-15T08:09:48;29.75;;;16.85;;
84763;SDS011;74992;51.072;6.088;2024-01-15T08:12:50;26.17;;;15.15;;
84763;SDS011;74992;51.072;6.088;2024-01-15T08:15:52;23.88;;;13.50;;
84763;SDS011;74992;51.072;6.088;2024-01-15T08:18:53;24.30;;;14.95;;
84763;SDS011;74992;51.072;6.088;2024-01-15T08:21:55;19.00;;;11.52;;
84763;SDS011;74992;51.072;6.088;2024-01-15T08:24:56;24.45;;;14.73;;
84763;SDS011;74992;51.072;6.088;2024-01-15T08:27:59;21.77;;;12.27;;
84763;SDS011;74992;51.072;6.088;2024-01-15T08:31:00;22.10;;;11.73;;
84763;SDS011;74992;51.072;6.088;2024-01-15T08:34:02;12.30;;;7.43;;
84763;SDS011;74992;51.072;6.088;2024-01-15T08:37:04;22.58;;;11.57;;
84763;SDS011;74992;51.072;6.088;2024-01-15T08:40:06;18.00;;;12.10;;
84763;SDS011;74992;51.072;6.088;2024-01-15T08:43:08;12.55;;;6.65;;
84763;SDS011;74992;51.072;6.088;2024-01-15T08:46:09;21.80;;;11.30;;
84763;SDS011;74992;51.072;6.088;2024-01-15T08:49:11;16.95;;;9.68;;
84763;SDS011;74992;51.072;6.088;2024-01-15T08:52:12;21.35;;;11.45;;
84763;SDS011;74992;51.072;6.088;2024-01-15T08:55:17;16.45;;;9.60;;
84763;SDS011;74992;51.072;6.088;2024-01-15T08:58:18;23.45;;;11.73;;
84763;SDS011;74992;51.072;6.088;2024-01-15T09:01:20;18.02;;;10.13;;
84763;SDS011;74992;51.072;6.088;2024-01-15T09:04:23;6.43;;;4.63;;
84763;SDS011;74992;51.072;6.088;2024-01-15T09:07:26;7.75;;;5.50;;
84763;SDS011;74992;51.072;6.088;2024-01-15T09:10:27;14.32;;;8.38;;
84763;SDS011;74992;51.072;6.088;2024-01-15T09:13:30;7.60;;;4.53;;
84763;SDS011;74992;51.072;6.088;2024-01-15T09:16:31;12.48;;;7.57;;
84763;SDS011;74992;51.072;6.088;2024-01-15T09:19:34;12.20;;;7.03;;
84763;SDS011;74992;51.072;6.088;2024-01-15T09:22:37;10.10;;;6.28;;
84763;SDS011;74992;51.072;6.088;2024-01-15T09:25:40;16.63;;;8.75;;
84763;SDS011;74992;51.072;6.088;2024-01-15T09:28:42;11.07;;;6.60;;
84763;SDS011;74992;51.072;6.088;2024-01-15T09:31:43;8.45;;;4.75;;
84763;SDS011;74992;51.072;6.088;2024-01-15T09:34:47;9.32;;;6.50;;
84763;SDS011;74992;51.072;6.088;2024-01-15T09:37:49;7.70;;;4.80;;
84763;SDS011;74992;51.072;6.088;2024-01-15T09:40:50;6.35;;;3.85;;
84763;SDS011;74992;51.072;6.088;2024-01-15T09:43:52;7.72;;;5.05;;
84763;SDS011;74992;51.072;6.088;2024-01-15T09:46:55;7.30;;;5.25;;
84763;SDS011;74992;51.072;6.088;2024-01-15T09:49:58;7.93;;;5.32;;
84763;SDS011;74992;51.072;6.088;2024-01-15T09:52:59;7.30;;;4.13;;
84763;SDS011;74992;51.072;6.088;2024-01-15T09:56:01;8.50;;;5.35;;
84763;SDS011;74992;51.072;6.088;2024-01-15T09:59:02;6.93;;;5.07;;
84763;SDS011;74992;51.072;6.088;2024-01-15T10:02:05;8.93;;;4.82;;
84763;SDS011;74992;51.072;6.088;2024-01-15T10:05:08;6.80;;;5.05;;
84763;SDS011;74992;51.072;6.088;2024-01-15T10:08:10;8.10;;;4.28;;
84763;SDS011;74992;51.072;6.088;2024-01-15T10:11:12;5.75;;;3.95;;
84763;SDS011;74992;51.072;6.088;2024-01-15T10:14:13;6.03;;;3.47;;
84763;SDS011;74992;51.072;6.088;2024-01-15T10:17:15;5.10;;;2.78;;
84763;SDS011;74992;51.072;6.088;2024-01-15T10:20:17;5.68;;;3.35;;
84763;SDS011;74992;51.072;6.088;2024-01-15T10:23:18;7.00;;;4.13;;
84763;SDS011;74992;51.072;6.088;2024-01-15T10:26:24;6.90;;;4.72;;
84763;SDS011;74992;51.072;6.088;2024-01-15T10:29:26;9.00;;;5.35;;
84763;SDS011;74992;51.072;6.088;2024-01-15T10:32:27;7.72;;;4.75;;
84763;SDS011;74992;51.072;6.088;2024-01-15T10:35:29;8.32;;;5.13;;
84763;SDS011;74992;51.072;6.088;2024-01-15T10:38:31;11.95;;;7.10;;
84763;SDS011;74992;51.072;6.088;2024-01-15T10:41:33;11.02;;;6.70;;
84763;SDS011;74992;51.072;6.088;2024-01-15T10:44:35;8.02;;;4.60;;
84763;SDS011;74992;51.072;6.088;2024-01-15T10:47:36;9.60;;;6.22;;
84763;SDS011;74992;51.072;6.088;2024-01-15T10:50:38;12.93;;;6.65;;
84763;SDS011;74992;51.072;6.088;2024-01-15T10:53:39;8.98;;;6.38;;
84763;SDS011;74992;51.072;6.088;2024-01-15T10:56:42;11.55;;;6.88;;
84763;SDS011;74992;51.072;6.088;2024-01-15T11:02:47;10.40;;;6.90;;
84763;SDS011;74992;51.072;6.088;2024-01-15T11:05:48;10.15;;;7.50;;
84763;SDS011;74992;51.072;6.088;2024-01-15T11:08:50;11.93;;;7.60;;
84763;SDS011;74992;51.072;6.088;2024-01-15T11:12:06;11.30;;;8.80;;
84763;SDS011;74992;51.072;6.088;2024-01-15T11:15:09;11.75;;;8.40;;
84763;SDS011;74992;51.072;6.088;2024-01-15T11:18:10;12.43;;;8.85;;
84763;SDS011;74992;51.072;6.088;2024-01-15T11:27:40;13.50;;;7.25;;
84763;SDS011;74992;51.072;6.088;2024-01-15T11:30:43;12.13;;;7.88;;
84763;SDS011;74992;51.072;6.088;2024-01-15T11:33:50;10.48;;;7.43;;
84763;SDS011;74992;51.072;6.088;2024-01-15T11:39:53;20.65;;;7.78;;
84763;SDS011;74992;51.072;6.088;2024-01-15T11:42:55;11.48;;;7.55;;
84763;SDS011;74992;51.072;6.088;2024-01-15T11:45:57;12.18;;;6.78;;
84763;SDS011;74992;51.072;6.088;2024-01-15T11:49:03;13.23;;;6.18;;
84763;SDS011;74992;51.072;6.088;2024-01-15T11:52:05;11.00;;;5.90;;
84763;SDS011;74992;51.072;6.088;2024-01-15T11:55:11;12.98;;;6.13;;
84763;SDS011;74992;51.072;6.088;2024-01-15T11:58:18;7.95;;;4.63;;
84763;SDS011;74992;51.072;6.088;2024-01-15T12:01:20;15.27;;;5.53;;
84763;SDS011;74992;51.072;6.088;2024-01-15T12:04:22;6.30;;;4.35;;
84763;SDS011;74992;51.072;6.088;2024-01-15T12:07:23;5.25;;;3.10;;
84763;SDS011;74992;51.072;6.088;2024-01-15T12:10:24;9.85;;;4.80;;
84763;SDS011;74992;51.072;6.088;2024-01-15T12:13:26;8.07;;;3.85;;
84763;SDS011;74992;51.072;6.088;2024-01-15T12:16:28;14.18;;;5.15;;
84763;SDS011;74992;51.072;6.088;2024-01-15T12:19:29;8.65;;;5.00;;
84763;SDS011;74992;51.072;6.088;2024-01-15T12:22:31;8.18;;;3.85;;
84763;SDS011;74992;51.072;6.088;2024-01-15T12:25:33;6.22;;;3.80;;
84763;SDS011;74992;51.072;6.088;2024-01-15T12:28:36;4.50;;;2.60;;
84763;SDS011;74992;51.072;6.088;2024-01-15T12:31:38;7.82;;;3.70;;
84763;SDS011;74992;51.072;6.088;2024-01-15T12:34:39;7.68;;;3.97;;
84763;SDS011;74992;51.072;6.088;2024-01-15T12:37:41;7.65;;;5.43;;
84763;SDS011;74992;51.072;6.088;2024-01-15T12:40:43;6.75;;;4.78;;
84763;SDS011;74992;51.072;6.088;2024-01-15T12:46:47;5.28;;;2.92;;
84763;SDS011;74992;51.072;6.088;2024-01-15T12:49:51;6.35;;;4.13;;
84763;SDS011;74992;51.072;6.088;2024-01-15T12:52:55;8.13;;;3.45;;
84763;SDS011;74992;51.072;6.088;2024-01-15T12:55:56;5.07;;;3.00;;
84763;SDS011;74992;51.072;6.088;2024-01-15T12:58:57;5.00;;;3.00;;
84763;SDS011;74992;51.072;6.088;2024-01-15T13:01:59;5.35;;;2.75;;
84763;SDS011;74992;51.072;6.088;2024-01-15T13:05:00;5.40;;;3.50;;
84763;SDS011;74992;51.072;6.088;2024-01-15T13:11:05;7.40;;;3.63;;
84763;SDS011;74992;51.072;6.088;2024-01-15T13:14:06;7.35;;;3.35;;
84763;SDS011;74992;51.072;6.088;2024-01-15T13:17:08;6.18;;;3.75;;
84763;SDS011;74992;51.072;6.088;2024-01-15T13:20:09;6.85;;;3.55;;
84763;SDS011;74992;51.072;6.088;2024-01-15T13:23:11;12.07;;;2.50;;
84763;SDS011;74992;51.072;6.088;2024-01-15T13:26:12;5.25;;;2.78;;
84763;SDS011;74992;51.072;6.088;2024-01-15T13:29:14;9.65;;;3.53;;
84763;SDS011;74992;51.072;6.088;2024-01-15T13:32:17;5.18;;;2.80;;
84763;SDS011;74992;51.072;6.088;2024-01-15T13:35:30;4.97;;;2.83;;
84763;SDS011;74992;51.072;6.088;2024-01-15T13:38:31;5.40;;;3.10;;
84763;SDS011;74992;51.072;6.088;2024-01-15T13:41:36;7.28;;;3.20;;
84763;SDS011;74992;51.072;6.088;2024-01-15T13:44:38;5.20;;;3.67;;
84763;SDS011;74992;51.072;6.088;2024-01-15T13:47:39;5.85;;;2.72;;
84763;SDS011;74992;51.072;6.088;2024-01-15T13:50:42;5.65;;;3.38;;
84763;SDS011;74992;51.072;6.088;2024-01-15T13:53:43;5.97;;;3.08;;
84763;SDS011;74992;51.072;6.088;2024-01-15T13:56:45;5.57;;;3.00;;
84763;SDS011;74992;51.072;6.088;2024-01-15T13:59:49;4.88;;;2.85;;
84763;SDS011;74992;51.072;6.088;2024-01-15T14:02:51;5.13;;;3.08;;
84763;SDS011;74992;51.072;6.088;2024-01-15T14:05:52;5.53;;;2.60;;
84763;SDS011;74992;51.072;6.088;2024-01-15T14:08:54;5.95;;;2.63;;
84763;SDS011;74992;51.072;6.088;2024-01-15T14:11:55;5.35;;;3.13;;
84763;SDS011;74992;51.072;6.088;2024-01-15T14:14:56;4.57;;;2.83;;
84763;SDS011;74992;51.072;6.088;2024-01-15T14:17:58;6.93;;;3.70;;
84763;SDS011;74992;51.072;6.088;2024-01-15T14:21:00;5.50;;;3.17;;
84763;SDS011;74992;51.072;6.088;2024-01-15T14:24:02;6.38;;;3.75;;
84763;SDS011;74992;51.072;6.088;2024-01-15T14:27:03;6.43;;;3.33;;
84763;SDS011;74992;51.072;6.088;2024-01-15T14:30:07;6.55;;;5.18;;
84763;SDS011;74992;51.072;6.088;2024-01-15T14:33:09;6.07;;;3.83;;
84763;SDS011;74992;51.072;6.088;2024-01-15T14:36:10;6.28;;;3.70;;
84763;SDS011;74992;51.072;6.088;2024-01-15T14:39:14;6.45;;;3.97;;
84763;SDS011;74992;51.072;6.088;2024-01-15T14:42:19;7.53;;;4.40;;
84763;SDS011;74992;51.072;6.088;2024-01-15T14:45:21;5.43;;;3.60;;
84763;SDS011;74992;51.072;6.088;2024-01-15T14:48:22;7.13;;;4.40;;
84763;SDS011;74992;51.072;6.088;2024-01-15T14:51:24;5.97;;;3.83;;
84763;SDS011;74992;51.072;6.088;2024-01-15T14:54:26;6.97;;;4.15;;
84763;SDS011;74992;51.072;6.088;2024-01-15T14:57:27;7.88;;;4.32;;
84763;SDS011;74992;51.072;6.088;2024-01-15T15:00:28;7.50;;;4.03;;
84763;SDS011;74992;51.072;6.088;2024-01-15T15:03:30;5.70;;;3.28;;
84763;SDS011;74992;51.072;6.088;2024-01-15T15:06:31;8.77;;;5.50;;
84763;SDS011;74992;51.072;6.088;2024-01-15T15:09:35;5.35;;;2.92;;
84763;SDS011;74992;51.072;6.088;2024-01-15T15:12:37;4.63;;;2.85;;
84763;SDS011;74992;51.072;6.088;2024-01-15T15:15:38;6.30;;;2.80;;
84763;SDS011;74992;51.072;6.088;2024-01-15T15:18:40;6.97;;;3.17;;
84763;SDS011;74992;51.072;6.088;2024-01-15T15:21:43;8.13;;;3.58;;
84763;SDS011;74992;51.072;6.088;2024-01-15T15:24:44;7.88;;;3.08;;
84763;SDS011;74992;51.072;6.088;2024-01-15T15:27:46;7.50;;;4.18;;
84763;SDS011;74992;51.072;6.088;2024-01-15T15:30:47;7.28;;;3.58;;
84763;SDS011;74992;51.072;6.088;2024-01-15T15:33:49;6.03;;;3.20;;
84763;SDS011;74992;51.072;6.088;2024-01-15T15:36:50;9.48;;;3.92;;
84763;SDS011;74992;51.072;6.088;2024-01-15T15:39:52;10.50;;;4.45;;
84763;SDS011;74992;51.072;6.088;2024-01-15T15:42:53;8.00;;;4.28;;
84763;SDS011;74992;51.072;6.088;2024-01-15T15:45:54;7.32;;;3.58;;
84763;SDS011;74992;51.072;6.088;2024-01-15T15:48:57;8.25;;;4.78;;
84763;SDS011;74992;51.072;6.088;2024-01-15T15:52:00;7.68;;;4.35;;
84763;SDS011;74992;51.072;6.088;2024-01-15T15:55:03;10.55;;;4.28;;
84763;SDS011;74992;51.072;6.088;2024-01-15T15:58:05;8.68;;;4.28;;
84763;SDS011;74992;51.072;6.088;2024-01-15T16:01:06;8.07;;;6.13;;
84763;SDS011;74992;51.072;6.088;2024-01-15T16:04:08;8.00;;;4.18;;
84763;SDS011;74992;51.072;6.088;2024-01-15T16:07:09;7.32;;;3.80;;
84763;SDS011;74992;51.072;6.088;2024-01-15T16:10:14;9.13;;;5.15;;
84763;SDS011;74992;51.072;6.088;2024-01-15T16:16:19;8.20;;;4.05;;
84763;SDS011;74992;51.072;6.088;2024-01-15T16:19:20;5.93;;;3.17;;
84763;SDS011;74992;51.072;6.088;2024-01-15T16:22:22;7.43;;;4.28;;
84763;SDS011;74992;51.072;6.088;2024-01-15T16:25:24;6.50;;;3.58;;
84763;SDS011;74992;51.072;6.088;2024-01-15T16:28:26;8.15;;;4.90;;
84763;SDS011;74992;51.072;6.088;2024-01-15T16:31:27;7.53;;;3.53;;
84763;SDS011;74992;51.072;6.088;2024-01-15T16:34:28;7.75;;;4.53;;
84763;SDS011;74992;51.072;6.088;2024-01-15T16:37:31;7.50;;;4.25;;
84763;SDS011;74992;51.072;6.088;2024-01-15T16:40:33;7.35;;;3.95;;
84763;SDS011;74992;51.072;6.088;2024-01-15T16:43:34;7.57;;;3.75;;
84763;SDS011;74992;51.072;6.088;2024-01-15T16:46:35;11.13;;;4.43;;
84763;SDS011;74992;51.072;6.088;2024-01-15T16:49:37;6.35;;;3.75;;
84763;SDS011;74992;51.072;6.088;2024-01-15T16:52:38;7.13;;;4.03;;
84763;SDS011;74992;51.072;6.088;2024-01-15T16:55:40;8.50;;;3.95;;
84763;SDS011;74992;51.072;6.088;2024-01-15T16:58:41;5.95;;;3.60;;
84763;SDS011;74992;51.072;6.088;2024-01-15T17:01:43;6.97;;;3.90;;
84763;SDS011;74992;51.072;6.088;2024-01-15T17:04:44;7.07;;;5.47;;
84763;SDS011;74992;51.072;6.088;2024-01-15T17:07:46;8.65;;;4.28;;
84763;SDS011;74992;51.072;6.088;2024-01-15T17:10:47;5.97;;;3.13;;
84763;SDS011;74992;51.072;6.088;2024-01-15T17:13:49;8.95;;;4.55;;
84763;SDS011;74992;51.072;6.088;2024-01-15T17:16:51;6.63;;;4.85;;
84763;SDS011;74992;51.072;6.088;2024-01-15T17:19:52;10.98;;;4.03;;
84763;SDS011;74992;51.072;6.088;2024-01-15T17:22:54;7.47;;;4.00;;
84763;SDS011;74992;51.072;6.088;2024-01-15T17:25:55;8.45;;;4.03;;
84763;SDS011;74992;51.072;6.088;2024-01-15T17:28:57;8.73;;;3.80;;
84763;SDS011;74992;51.072;6.088;2024-01-15T17:31:58;8.80;;;3.92;;
84763;SDS011;74992;51.072;6.088;2024-01-15T17:34:59;7.38;;;3.78;;
84763;SDS011;74992;51.072;6.088;2024-01-15T17:38:01;6.30;;;3.40;;
84763;SDS011;74992;51.072;6.088;2024-01-15T17:41:02;7.43;;;2.90;;
84763;SDS011;74992;51.072;6.088;2024-01-15T17:44:04;6.65;;;4.00;;
84763;SDS011;74992;51.072;6.088;2024-01-15T17:47:05;9.15;;;3.60;;
84763;SDS011;74992;51.072;6.088;2024-01-15T17:50:07;9.20;;;4.30;;
84763;SDS011;74992;51.072;6.088;2024-01-15T17:53:09;7.90;;;4.07;;
84763;SDS011;74992;51.072;6.088;2024-01-15T17:56:11;9.45;;;4.30;;
84763;SDS011;74992;51.072;6.088;2024-01-15T17:59:12;9.60;;;5.18;;
84763;SDS011;74992;51.072;6.088;2024-01-15T18:02:13;8.57;;;4.97;;
84763;SDS011;74992;51.072;6.088;2024-01-15T18:05:15;11.52;;;5.97;;
84763;SDS011;74992;51.072;6.088;2024-01-15T18:08:17;14.50;;;6.68;;
84763;SDS011;74992;51.072;6.088;2024-01-15T18:11:18;8.52;;;5.15;;
84763;SDS011;74992;51.072;6.088;2024-01-15T18:14:19;13.43;;;7.20;;
84763;SDS011;74992;51.072;6.088;2024-01-15T18:17:21;10.82;;;5.18;;
84763;SDS011;74992;51.072;6.088;2024-01-15T18:20:23;13.60;;;7.82;;
84763;SDS011;74992;51.072;6.088;2024-01-15T18:23:24;11.60;;;6.50;;